sensor_id;sensor_type;location;lat;lon;timestamp;P1;durP1;ratioP1;P2;durP2;ratioP2
2538;SDS011;1280;49.760;9.664;2023-09-12T00:00:51;23.63;;;8.93;;
2538;SDS011;1280;49.760;9.664;2023-09-12T00:03:19;18.90;;;8.63;;
2538;SDS011;1280;49.760;9.664;2023-09-12T00:05:52;17.07;;;7.70;;
2538;SDS011;1280;49.760;9.664;2023-09-12T00:08:21;17.17;;;8.50;;
2538;SDS011;1280;49.760;9.664;2023-09-12T00:10:57;26.50;;;9.57;;
2538;SDS011;1280;49.760;9.664;2023-09-12T00:13:27;16.60;;;7.70;;
2538;SDS011;1280;49.760;9.664;2023-09-12T00:15:55;17.57;;;8.80;;
2538;SDS011;1280;49.760;9.664;2023-09-12T00:18:24;16.40;;;8.50;;
2538;SDS011;1280;49.760;9.664;2023-09-12T00:20:52;18.00;;;8.83;;
2538;SDS011;1280;49.760;9.664;2023-09-12T00:23:22;18.57;;;8.70;;
2538;SDS011;1280;49.760;9.664;2023-09-12T00:25:50;14.77;;;8.70;;
2538;SDS011;1280;49.760;9.664;2023-09-12T00:28:18;15.00;;;8.47;;
2538;SDS011;1280;49.760;9.664;2023-09-12T00:30:47;18.23;;;8.83;;
2538;SDS011;1280;49.760;9.664;2023-09-12T00:33:18;17.63;;;8.27;;
2538;SDS011;1280;49.760;9.664;2023-09-12T00:35:46;21.30;;;9.33;;
2538;SDS011;1280;49.760;9.664;2023-09-12T00:40:47;16.07;;;8.53;;
2538;SDS011;1280;49.760;9.664;2023-09-12T00:43:15;21.43;;;8.77;;
2538;SDS011;1280;49.760;9.664;2023-09-12T00:45:44;17.20;;;9.30;;
2538;SDS011;1280;49.760;9.664;2023-09-12T00:48:12;20.70;;;8.40;;
2538;SDS011;1280;49.760;9.664;2023-09-12T00:50:42;24.90;;;8.87;;
2538;SDS011;1280;49.760;9.664;2023-09-12T00:53:12;17.63;;;9.43;;
2538;SDS011;1280;49.760;9.664;2023-09-12T00:55:42;14.57;;;8.90;;
2538;SDS011;1280;49.760;9.664;2023-09-12T00:58:17;15.40;;;8.80;;
2538;SDS011;1280;49.760;9.664;2023-09-12T01:00:45;16.80;;;8.73;;
2538;SDS011;1280;49.760;9.664;2023-09-12T01:03:14;17.40;;;9.30;;
2538;SDS011;1280;49.760;9.664;2023-09-12T01:05:43;16.30;;;8.60;;
2538;SDS011;1280;49.760;9.664;2023-09-12T01:08:12;25.63;;;9.03;;
2538;SDS011;1280;49.760;9.664;2023-09-12T01:10:40;18.23;;;9.57;;
2538;SDS011;1280;49.760;9.664;2023-09-12T01:13:12;16.33;;;9.00;;
2538;SDS011;1280;49.760;9.664;2023-09-12T01:15:47;20.37;;;9.10;;
2538;SDS011;1280;49.760;9.664;2023-09-12T01:18:15;15.80;;;8.90;;
2538;SDS011;1280;49.760;9.664;2023-09-12T01:20:48;17.77;;;8.67;;
2538;SDS011;1280;49.760;9.664;2023-09-12T01:23:31;18.77;;;8.60;;
2538;SDS011;1280;49.760;9.664;2023-09-12T01:26:20;24.90;;;8.67;;
2538;SDS011;1280;49.760;9.664;2023-09-12T01:28:58;20.33;;;8.20;;
2538;SDS011;1280;49.760;9.664;2023-09-12T01:35:40;20.77;;;8.87;;
2538;SDS011;1280;49.760;9.664;2023-09-12T01:38:10;18.40;;;8.40;;
2538;SDS011;1280;49.760;9.664;2023-09-12T01:40:38;17.63;;;9.40;;
2538;SDS011;1280;49.760;9.664;2023-09-12T01:43:11;15.07;;;9.07;;
2538;SDS011;1280;49.760;9.664;2023-09-12T01:45:45;15.07;;;8.47;;
2538;SDS011;1280;49.760;9.664;2023-09-12T01:48:15;20.20;;;9.47;;
2538;SDS011;1280;49.760;9.664;2023-09-12T01:50:49;17.37;;;8.80;;
2538;SDS011;1280;49.760;9.664;2023-09-12T01:53:17;14.77;;;9.33;;
2538;SDS011;1280;49.760;9.664;2023-09-12T01:55:46;15.47;;;8.47;;
2538;SDS011;1280;49.760;9.664;2023-09-12T01:58:15;16.63;;;8.70;;
2538;SDS011;1280;49.760;9.664;2023-09-12T02:00:45;16.27;;;8.83;;
2538;SDS011;1280;49.760;9.664;2023-09-12T02:03:13;22.13;;;9.67;;
2538;SDS011;1280;49.760;9.664;2023-09-12T02:05:41;21.13;;;9.60;;
2538;SDS011;1280;49.760;9.664;2023-09-12T02:08:09;17.33;;;8.53;;
2538;SDS011;1280;49.760;9.664;2023-09-12T02:10:37;14.97;;;8.40;;
2538;SDS011;1280;49.760;9.664;2023-09-12T02:13:06;19.10;;;9.13;;
2538;SDS011;1280;49.760;9.664;2023-09-12T02:15:34;22.27;;;8.47;;
2538;SDS011;1280;49.760;9.664;2023-09-12T02:18:06;21.10;;;9.60;;
2538;SDS011;1280;49.760;9.664;2023-09-12T02:20:37;16.53;;;8.67;;
2538;SDS011;1280;49.760;9.664;2023-09-12T02:23:06;21.40;;;9.47;;
2538;SDS011;1280;49.760;9.664;2023-09-12T02:25:34;16.50;;;8.93;;
2538;SDS011;1280;49.760;9.664;2023-09-12T02:28:02;16.03;;;9.57;;
2538;SDS011;1280;49.760;9.664;2023-09-12T02:30:30;16.50;;;9.30;;
2538;SDS011;1280;49.760;9.664;2023-09-12T02:32:58;18.93;;;10.47;;
2538;SDS011;1280;49.760;9.664;2023-09-12T02:35:28;19.53;;;9.73;;
2538;SDS011;1280;49.760;9.664;2023-09-12T02:37:56;13.33;;;9.27;;
2538;SDS011;1280;49.760;9.664;2023-09-12T02:40:24;15.97;;;9.27;;
2538;SDS011;1280;49.760;9.664;2023-09-12T02:42:52;16.70;;;9.00;;
2538;SDS011;1280;49.760;9.664;2023-09-12T02:45:20;19.67;;;8.70;;
2538;SDS011;1280;49.760;9.664;2023-09-12T02:47:48;18.47;;;9.77;;
2538;SDS011;1280;49.760;9.664;2023-09-12T02:50:17;14.93;;;8.87;;
2538;SDS011;1280;49.760;9.664;2023-09-12T02:52:46;20.17;;;9.70;;
2538;SDS011;1280;49.760;9.664;2023-09-12T02:55:14;16.40;;;9.90;;
2538;SDS011;1280;49.760;9.664;2023-09-12T02:57:43;21.27;;;10.10;;
2538;SDS011;1280;49.760;9.664;2023-09-12T03:00:11;17.73;;;9.47;;
2538;SDS011;1280;49.760;9.664;2023-09-12T03:02:40;15.33;;;9.00;;
2538;SDS011;1280;49.760;9.664;2023-09-12T03:05:08;17.77;;;9.53;;
2538;SDS011;1280;49.760;9.664;2023-09-12T03:07:37;20.63;;;9.00;;
2538;SDS011;1280;49.760;9.664;2023-09-12T03:10:06;15.23;;;9.27;;
2538;SDS011;1280;49.760;9.664;2023-09-12T03:12:35;17.67;;;9.03;;
2538;SDS011;1280;49.760;9.664;2023-09-12T03:15:04;18.70;;;9.80;;
2538;SDS011;1280;49.760;9.664;2023-09-12T03:17:36;19.27;;;9.90;;
2538;SDS011;1280;49.760;9.664;2023-09-12T03:20:05;22.27;;;10.07;;
2538;SDS011;1280;49.760;9.664;2023-09-12T03:22:34;24.00;;;9.80;;
2538;SDS011;1280;49.760;9.664;2023-09-12T03:25:06;19.70;;;9.70;;
2538;SDS011;1280;49.760;9.664;2023-09-12T03:27:35;21.80;;;9.63;;
2538;SDS011;1280;49.760;9.664;2023-09-12T03:30:03;19.43;;;10.20;;
2538;SDS011;1280;49.760;9.664;2023-09-12T03:32:32;18.87;;;9.00;;
2538;SDS011;1280;49.760;9.664;2023-09-12T03:35:00;24.67;;;11.30;;
2538;SDS011;1280;49.760;9.664;2023-09-12T03:37:28;18.00;;;9.90;;
2538;SDS011;1280;49.760;9.664;2023-09-12T03:39:56;16.17;;;8.57;;
2538;SDS011;1280;49.760;9.664;2023-09-12T03:42:26;18.57;;;9.60;;
2538;SDS011;1280;49.760;9.664;2023-09-12T03:45:08;18.30;;;9.53;;
2538;SDS011;1280;49.760;9.664;2023-09-12T03:47:43;18.93;;;9.30;;
2538;SDS011;1280;49.760;9.664;2023-09-12T03:50:14;18.83;;;9.10;;
2538;SDS011;1280;49.760;9.664;2023-09-12T03:52:42;17.13;;;10.03;;
2538;SDS011;1280;49.760;9.664;2023-09-12T03:55:11;17.90;;;9.30;;
2538;SDS011;1280;49.760;9.664;2023-09-12T03:57:40;19.27;;;9.43;;
2538;SDS011;1280;49.760;9.664;2023-09-12T04:00:09;19.60;;;10.17;;
2538;SDS011;1280;49.760;9.664;2023-09-12T04:02:46;18.93;;;10.00;;
2538;SDS011;1280;49.760;9.664;2023-09-12T04:05:14;16.33;;;8.97;;
2538;SDS011;1280;49.760;9.664;2023-09-12T04:07:42;24.73;;;10.73;;
2538;SDS011;1280;49.760;9.664;2023-09-12T04:10:10;17.50;;;10.60;;
2538;SDS011;1280;49.760;9.664;2023-09-12T04:12:40;19.00;;;9.40;;
2538;SDS011;1280;49.760;9.664;2023-09-12T04:15:09;18.97;;;9.80;;
2538;SDS011;1280;49.760;9.664;2023-09-12T04:17:37;20.30;;;9.93;;
2538;SDS011;1280;49.760;9.664;2023-09-12T04:20:06;17.60;;;9.97;;
2538;SDS011;1280;49.760;9.664;2023-09-12T04:22:34;18.27;;;10.57;;
2538;SDS011;1280;49.760;9.664;2023-09-12T04:25:03;17.10;;;9.70;;
2538;SDS011;1280;49.760;9.664;2023-09-12T04:27:31;22.43;;;10.37;;
2538;SDS011;1280;49.760;9.664;2023-09-12T04:30:02;16.30;;;9.20;;
2538;SDS011;1280;49.760;9.664;2023-09-12T04:32:31;18.80;;;10.40;;
2538;SDS011;1280;49.760;9.664;2023-09-12T04:34:59;17.27;;;10.23;;
2538;SDS011;1280;49.760;9.664;2023-09-12T04:37:27;20.40;;;10.23;;
2538;SDS011;1280;49.760;9.664;2023-09-12T04:39:55;15.20;;;9.73;;
2538;SDS011;1280;49.760;9.664;2023-09-12T04:42:23;14.67;;;9.40;;
2538;SDS011;1280;49.760;9.664;2023-09-12T04:44:51;19.20;;;10.60;;
2538;SDS011;1280;49.760;9.664;2023-09-12T04:47:21;18.00;;;9.40;;
2538;SDS011;1280;49.760;9.664;2023-09-12T04:49:50;15.90;;;9.60;;
2538;SDS011;1280;49.760;9.664;2023-09-12T04:52:18;20.57;;;9.97;;
2538;SDS011;1280;49.760;9.664;2023-09-12T04:54:46;16.53;;;10.30;;
2538;SDS011;1280;49.760;9.664;2023-09-12T04:57:14;16.03;;;9.27;;
2538;SDS011;1280;49.760;9.664;2023-09-12T04:59:43;19.40;;;10.70;;
2538;SDS011;1280;49.760;9.664;2023-09-12T05:02:12;18.37;;;10.17;;
2538;SDS011;1280;49.760;9.664;2023-09-12T05:04:43;20.63;;;11.37;;
2538;SDS011;1280;49.760;9.664;2023-09-12T05:07:11;21.47;;;10.80;;
2538;SDS011;1280;49.760;9.664;2023-09-12T05:09:39;23.87;;;10.50;;
2538;SDS011;1280;49.760;9.664;2023-09-12T05:12:07;15.30;;;10.57;;
2538;SDS011;1280;49.760;9.664;2023-09-12T05:14:42;16.20;;;10.30;;
2538;SDS011;1280;49.760;9.664;2023-09-12T05:17:10;21.23;;;10.37;;
2538;SDS011;1280;49.760;9.664;2023-09-12T05:19:39;17.63;;;10.27;;
2538;SDS011;1280;49.760;9.664;2023-09-12T05:22:08;16.03;;;9.57;;
2538;SDS011;1280;49.760;9.664;2023-09-12T05:24:37;15.47;;;9.80;;
2538;SDS011;1280;49.760;9.664;2023-09-12T05:27:05;24.43;;;10.67;;
2538;SDS011;1280;49.760;9.664;2023-09-12T05:29:33;20.90;;;11.20;;
2538;SDS011;1280;49.760;9.664;2023-09-12T05:32:02;20.97;;;11.20;;
2538;SDS011;1280;49.760;9.664;2023-09-12T05:34:31;22.73;;;11.03;;
2538;SDS011;1280;49.760;9.664;2023-09-12T05:36:59;20.17;;;10.70;;
2538;SDS011;1280;49.760;9.664;2023-09-12T05:39:29;17.83;;;10.20;;
2538;SDS011;1280;49.760;9.664;2023-09-12T05:41:57;16.27;;;11.00;;
2538;SDS011;1280;49.760;9.664;2023-09-12T05:44:25;16.80;;;10.07;;
2538;SDS011;1280;49.760;9.664;2023-09-12T05:46:53;24.70;;;11.30;;
2538;SDS011;1280;49.760;9.664;2023-09-12T05:49:22;18.40;;;10.20;;
2538;SDS011;1280;49.760;9.664;2023-09-12T05:51:50;15.70;;;10.00;;
2538;SDS011;1280;49.760;9.664;2023-09-12T05:54:19;18.47;;;11.13;;
2538;SDS011;1280;49.760;9.664;2023-09-12T05:56:48;18.10;;;11.03;;
2538;SDS011;1280;49.760;9.664;2023-09-12T05:59:17;23.10;;;10.43;;
2538;SDS011;1280;49.760;9.664;2023-09-12T06:01:45;20.60;;;10.80;;
2538;SDS011;1280;49.760;9.664;2023-09-12T06:04:14;21.57;;;10.40;;
2538;SDS011;1280;49.760;9.664;2023-09-12T06:06:42;18.97;;;10.73;;
2538;SDS011;1280;49.760;9.664;2023-09-12T06:09:11;26.37;;;11.67;;
2538;SDS011;1280;49.760;9.664;2023-09-12T06:11:39;19.93;;;11.23;;
2538;SDS011;1280;49.760;9.664;2023-09-12T06:14:08;17.20;;;10.47;;
2538;SDS011;1280;49.760;9.664;2023-09-12T06:16:36;19.77;;;12.50;;
2538;SDS011;1280;49.760;9.664;2023-09-12T06:19:04;21.73;;;13.33;;
2538;SDS011;1280;49.760;9.664;2023-09-12T06:21:32;21.23;;;12.43;;
2538;SDS011;1280;49.760;9.664;2023-09-12T06:24:10;23.10;;;12.70;;
2538;SDS011;1280;49.760;9.664;2023-09-12T06:26:40;23.30;;;13.70;;
2538;SDS011;1280;49.760;9.664;2023-09-12T06:29:09;18.37;;;13.37;;
2538;SDS011;1280;49.760;9.664;2023-09-12T06:31:37;35.27;;;14.00;;
2538;SDS011;1280;49.760;9.664;2023-09-12T06:34:05;24.23;;;13.10;;
2538;SDS011;1280;49.760;9.664;2023-09-12T06:36:33;23.63;;;14.30;;
2538;SDS011;1280;49.760;9.664;2023-09-12T06:39:01;22.83;;;13.27;;
2538;SDS011;1280;49.760;9.664;2023-09-12T06:41:31;20.23;;;13.27;;
2538;SDS011;1280;49.760;9.664;2023-09-12T06:43:59;25.60;;;14.27;;
2538;SDS011;1280;49.760;9.664;2023-09-12T06:46:31;20.73;;;14.50;;
2538;SDS011;1280;49.760;9.664;2023-09-12T06:49:02;18.73;;;13.00;;
2538;SDS011;1280;49.760;9.664;2023-09-12T06:51:30;26.17;;;13.50;;
2538;SDS011;1280;49.760;9.664;2023-09-12T06:54:04;27.73;;;15.53;;
2538;SDS011;1280;49.760;9.664;2023-09-12T06:56:32;28.03;;;14.13;;
2538;SDS011;1280;49.760;9.664;2023-09-12T06:59:04;21.63;;;15.43;;
2538;SDS011;1280;49.760;9.664;2023-09-12T07:01:33;28.50;;;14.90;;
2538;SDS011;1280;49.760;9.664;2023-09-12T07:04:02;24.03;;;14.00;;
2538;SDS011;1280;49.760;9.664;2023-09-12T07:06:30;23.77;;;14.23;;
2538;SDS011;1280;49.760;9.664;2023-09-12T07:08:59;26.57;;;15.43;;
2538;SDS011;1280;49.760;9.664;2023-09-12T07:11:27;28.17;;;15.03;;
2538;SDS011;1280;49.760;9.664;2023-09-12T07:13:55;31.47;;;13.30;;
2538;SDS011;1280;49.760;9.664;2023-09-12T07:16:23;21.50;;;14.37;;
2538;SDS011;1280;49.760;9.664;2023-09-12T07:18:52;28.03;;;14.70;;
2538;SDS011;1280;49.760;9.664;2023-09-12T07:21:21;27.20;;;14.60;;
2538;SDS011;1280;49.760;9.664;2023-09-12T07:23:49;27.97;;;14.77;;
2538;SDS011;1280;49.760;9.664;2023-09-12T07:26:17;38.93;;;14.13;;
2538;SDS011;1280;49.760;9.664;2023-09-12T07:28:45;31.37;;;15.07;;
2538;SDS011;1280;49.760;9.664;2023-09-12T07:31:13;24.03;;;14.07;;
2538;SDS011;1280;49.760;9.664;2023-09-12T07:33:42;31.50;;;14.80;;
2538;SDS011;1280;49.760;9.664;2023-09-12T07:36:12;30.20;;;14.77;;
2538;SDS011;1280;49.760;9.664;2023-09-12T07:38:40;20.40;;;13.60;;
2538;SDS011;1280;49.760;9.664;2023-09-12T07:41:09;23.30;;;13.70;;
2538;SDS011;1280;49.760;9.664;2023-09-12T07:43:37;22.57;;;14.40;;
2538;SDS011;1280;49.760;9.664;2023-09-12T07:46:04;23.70;;;13.37;;
2538;SDS011;1280;49.760;9.664;2023-09-12T07:48:38;30.37;;;13.73;;
2538;SDS011;1280;49.760;9.664;2023-09-12T07:51:17;22.20;;;11.47;;
2538;SDS011;1280;49.760;9.664;2023-09-12T07:53:45;25.07;;;12.23;;
2538;SDS011;1280;49.760;9.664;2023-09-12T07:56:13;26.47;;;12.43;;
2538;SDS011;1280;49.760;9.664;2023-09-12T07:58:41;30.07;;;13.00;;
2538;SDS011;1280;49.760;9.664;2023-09-12T08:01:09;20.10;;;11.97;;
2538;SDS011;1280;49.760;9.664;2023-09-12T08:03:37;18.90;;;12.50;;
2538;SDS011;1280;49.760;9.664;2023-09-12T08:06:07;19.90;;;12.20;;
2538;SDS011;1280;49.760;9.664;2023-09-12T08:08:44;22.07;;;13.03;;
2538;SDS011;1280;49.760;9.664;2023-09-12T08:11:12;20.63;;;12.87;;
2538;SDS011;1280;49.760;9.664;2023-09-12T08:13:40;19.20;;;12.83;;
2538;SDS011;1280;49.760;9.664;2023-09-12T08:16:08;19.90;;;12.07;;
2538;SDS011;1280;49.760;9.664;2023-09-12T08:18:36;18.80;;;13.07;;
2538;SDS011;1280;49.760;9.664;2023-09-12T08:21:10;22.50;;;12.77;;
2538;SDS011;1280;49.760;9.664;2023-09-12T08:23:39;21.73;;;12.83;;
2538;SDS011;1280;49.760;9.664;2023-09-12T08:26:08;25.43;;;13.33;;
2538;SDS011;1280;49.760;9.664;2023-09-12T08:28:37;22.27;;;13.77;;
2538;SDS011;1280;49.760;9.664;2023-09-12T08:31:05;18.83;;;12.40;;
2538;SDS011;1280;49.760;9.664;2023-09-12T08:33:33;21.17;;;11.63;;
2538;SDS011;1280;49.760;9.664;2023-09-12T08:36:02;22.27;;;11.47;;
2538;SDS011;1280;49.760;9.664;2023-09-12T08:38:30;19.83;;;12.23;;
2538;SDS011;1280;49.760;9.664;2023-09-12T08:41:00;24.00;;;12.43;;
2538;SDS011;1280;49.760;9.664;2023-09-12T08:43:28;25.67;;;13.70;;
2538;SDS011;1280;49.760;9.664;2023-09-12T08:45:56;23.77;;;13.00;;
2538;SDS011;1280;49.760;9.664;2023-09-12T08:48:24;29.30;;;14.23;;
2538;SDS011;1280;49.760;9.664;2023-09-12T08:50:52;19.43;;;12.10;;
2538;SDS011;1280;49.760;9.664;2023-09-12T08:53:21;20.80;;;13.23;;
2538;SDS011;1280;49.760;9.664;2023-09-12T08:55:49;39.03;;;14.87;;
2538;SDS011;1280;49.760;9.664;2023-09-12T08:58:20;28.87;;;13.17;;
2538;SDS011;1280;49.760;9.664;2023-09-12T09:00:49;23.00;;;12.00;;
2538;SDS011;1280;49.760;9.664;2023-09-12T09:03:18;22.30;;;13.33;;
2538;SDS011;1280;49.760;9.664;2023-09-12T09:05:47;29.57;;;13.20;;
2538;SDS011;1280;49.760;9.664;2023-09-12T09:08:16;27.20;;;13.20;;
2538;SDS011;1280;49.760;9.664;2023-09-12T09:10:54;26.07;;;13.00;;
2538;SDS011;1280;49.760;9.664;2023-09-12T09:13:24;23.20;;;12.27;;
2538;SDS011;1280;49.760;9.664;2023-09-12T09:18:55;25.93;;;14.00;;
2538;SDS011;1280;49.760;9.664;2023-09-12T09:21:25;18.77;;;11.90;;
2538;SDS011;1280;49.760;9.664;2023-09-12T09:23:57;25.87;;;12.90;;
2538;SDS011;1280;49.760;9.664;2023-09-12T09:26:29;24.03;;;11.33;;
2538;SDS011;1280;49.760;9.664;2023-09-12T09:29:14;22.13;;;12.23;;
2538;SDS011;1280;49.760;9.664;2023-09-12T09:31:43;21.83;;;10.53;;
2538;SDS011;1280;49.760;9.664;2023-09-12T09:34:12;22.13;;;12.00;;
2538;SDS011;1280;49.760;9.664;2023-09-12T09:36:43;23.40;;;11.40;;
2538;SDS011;1280;49.760;9.664;2023-09-12T09:39:14;22.63;;;11.37;;
2538;SDS011;1280;49.760;9.664;2023-09-12T09:41:46;27.33;;;11.60;;
2538;SDS011;1280;49.760;9.664;2023-09-12T09:44:17;29.40;;;11.37;;
2538;SDS011;1280;49.760;9.664;2023-09-12T09:46:46;21.80;;;11.67;;
2538;SDS011;1280;49.760;9.664;2023-09-12T09:49:19;25.30;;;10.90;;
2538;SDS011;1280;49.760;9.664;2023-09-12T09:51:47;21.50;;;10.83;;
2538;SDS011;1280;49.760;9.664;2023-09-12T09:54:16;24.13;;;12.23;;
2538;SDS011;1280;49.760;9.664;2023-09-12T09:56:45;19.07;;;10.87;;
2538;SDS011;1280;49.760;9.664;2023-09-12T09:59:14;15.97;;;10.77;;
2538;SDS011;1280;49.760;9.664;2023-09-12T10:01:45;27.47;;;10.40;;
2538;SDS011;1280;49.760;9.664;2023-09-12T10:04:15;17.07;;;11.43;;
2538;SDS011;1280;49.760;9.664;2023-09-12T10:06:44;16.30;;;9.70;;
2538;SDS011;1280;49.760;9.664;2023-09-12T10:09:13;19.60;;;10.20;;
2538;SDS011;1280;49.760;9.664;2023-09-12T10:11:42;20.93;;;10.47;;
2538;SDS011;1280;49.760;9.664;2023-09-12T10:14:11;23.80;;;10.57;;
2538;SDS011;1280;49.760;9.664;2023-09-12T10:16:41;20.47;;;10.70;;
2538;SDS011;1280;49.760;9.664;2023-09-12T10:19:15;18.93;;;10.23;;
2538;SDS011;1280;49.760;9.664;2023-09-12T10:21:46;19.27;;;10.30;;
2538;SDS011;1280;49.760;9.664;2023-09-12T10:24:17;22.80;;;9.30;;
2538;SDS011;1280;49.760;9.664;2023-09-12T10:26:48;19.07;;;10.20;;
2538;SDS011;1280;49.760;9.664;2023-09-12T10:29:17;21.77;;;9.33;;
2538;SDS011;1280;49.760;9.664;2023-09-12T10:31:47;18.40;;;9.93;;
2538;SDS011;1280;49.760;9.664;2023-09-12T10:34:16;21.20;;;10.23;;
2538;SDS011;1280;49.760;9.664;2023-09-12T10:36:44;18.47;;;9.37;;
2538;SDS011;1280;49.760;9.664;2023-09-12T10:39:14;16.07;;;9.10;;
2538;SDS011;1280;49.760;9.664;2023-09-12T10:41:42;21.73;;;10.80;;
2538;SDS011;1280;49.760;9.664;2023-09-12T10:44:11;20.63;;;10.27;;
2538;SDS011;1280;49.760;9.664;2023-09-12T10:46:43;16.13;;;9.07;;
2538;SDS011;1280;49.760;9.664;2023-09-12T10:49:14;14.67;;;8.80;;
2538;SDS011;1280;49.760;9.664;2023-09-12T10:51:43;18.83;;;9.30;;
2538;SDS011;1280;49.760;9.664;2023-09-12T10:54:13;25.50;;;9.70;;
2538;SDS011;1280;49.760;9.664;2023-09-12T10:56:42;15.60;;;8.50;;
2538;SDS011;1280;49.760;9.664;2023-09-12T10:59:12;19.83;;;9.40;;
2538;SDS011;1280;49.760;9.664;2023-09-12T11:01:42;18.97;;;9.67;;
2538;SDS011;1280;49.760;9.664;2023-09-12T11:04:33;16.80;;;9.47;;
2538;SDS011;1280;49.760;9.664;2023-09-12T11:10:19;21.33;;;9.20;;
2538;SDS011;1280;49.760;9.664;2023-09-12T11:12:49;24.63;;;9.00;;
2538;SDS011;1280;49.760;9.664;2023-09-12T11:15:18;16.67;;;8.23;;
2538;SDS011;1280;49.760;9.664;2023-09-12T11:17:47;15.00;;;9.07;;
2538;SDS011;1280;49.760;9.664;2023-09-12T11:20:17;21.93;;;9.30;;
2538;SDS011;1280;49.760;9.664;2023-09-12T11:22:49;15.77;;;8.30;;
2538;SDS011;1280;49.760;9.664;2023-09-12T11:25:19;18.63;;;8.80;;
2538;SDS011;1280;49.760;9.664;2023-09-12T11:28:02;14.53;;;8.70;;
2538;SDS011;1280;49.760;9.664;2023-09-12T11:30:31;22.87;;;8.40;;
2538;SDS011;1280;49.760;9.664;2023-09-12T11:33:03;22.13;;;8.63;;
2538;SDS011;1280;49.760;9.664;2023-09-12T11:35:37;17.60;;;8.53;;
2538;SDS011;1280;49.760;9.664;2023-09-12T11:38:09;22.13;;;8.87;;
2538;SDS011;1280;49.760;9.664;2023-09-12T11:40:41;18.73;;;8.13;;
2538;SDS011;1280;49.760;9.664;2023-09-12T11:43:18;16.33;;;8.30;;
2538;SDS011;1280;49.760;9.664;2023-09-12T11:45:48;15.80;;;8.00;;
2538;SDS011;1280;49.760;9.664;2023-09-12T11:48:18;13.53;;;7.70;;
2538;SDS011;1280;49.760;9.664;2023-09-12T11:50:51;16.63;;;8.90;;
2538;SDS011;1280;49.760;9.664;2023-09-12T11:53:21;17.00;;;8.40;;
2538;SDS011;1280;49.760;9.664;2023-09-12T11:55:51;17.50;;;8.47;;
2538;SDS011;1280;49.760;9.664;2023-09-12T11:58:21;14.50;;;7.80;;
2538;SDS011;1280;49.760;9.664;2023-09-12T12:00:50;16.93;;;8.77;;
2538;SDS011;1280;49.760;9.664;2023-09-12T12:03:19;18.83;;;8.87;;
2538;SDS011;1280;49.760;9.664;2023-09-12T12:05:48;17.63;;;7.93;;
2538;SDS011;1280;49.760;9.664;2023-09-12T12:08:18;19.57;;;7.80;;
2538;SDS011;1280;49.760;9.664;2023-09-12T12:10:58;18.53;;;7.80;;
2538;SDS011;1280;49.760;9.664;2023-09-12T12:13:27;15.43;;;7.13;;
2538;SDS011;1280;49.760;9.664;2023-09-12T12:15:56;18.83;;;7.97;;
2538;SDS011;1280;49.760;9.664;2023-09-12T12:18:25;17.43;;;8.27;;
2538;SDS011;1280;49.760;9.664;2023-09-12T12:20:55;14.73;;;7.67;;
2538;SDS011;1280;49.760;9.664;2023-09-12T12:23:23;21.07;;;7.90;;
2538;SDS011;1280;49.760;9.664;2023-09-12T12:25:51;18.33;;;7.87;;
2538;SDS011;1280;49.760;9.664;2023-09-12T12:28:20;17.63;;;7.47;;
2538;SDS011;1280;49.760;9.664;2023-09-12T12:30:49;15.40;;;7.60;;
2538;SDS011;1280;49.760;9.664;2023-09-12T12:33:20;20.20;;;8.03;;
2538;SDS011;1280;49.760;9.664;2023-09-12T12:36:09;15.20;;;8.07;;
2538;SDS011;1280;49.760;9.664;2023-09-12T12:38:38;15.80;;;8.87;;
2538;SDS011;1280;49.760;9.664;2023-09-12T12:41:21;16.60;;;8.10;;
2538;SDS011;1280;49.760;9.664;2023-09-12T12:43:52;16.37;;;8.10;;
2538;SDS011;1280;49.760;9.664;2023-09-12T12:46:22;20.90;;;7.50;;
2538;SDS011;1280;49.760;9.664;2023-09-12T12:48:51;15.63;;;8.20;;
2538;SDS011;1280;49.760;9.664;2023-09-12T12:51:22;19.10;;;8.00;;
2538;SDS011;1280;49.760;9.664;2023-09-12T12:53:51;20.57;;;9.40;;
2538;SDS011;1280;49.760;9.664;2023-09-12T12:56:22;26.33;;;9.80;;
2538;SDS011;1280;49.760;9.664;2023-09-12T12:58:58;18.00;;;8.63;;
2538;SDS011;1280;49.760;9.664;2023-09-12T13:01:31;17.90;;;8.23;;
2538;SDS011;1280;49.760;9.664;2023-09-12T13:04:00;17.70;;;8.83;;
2538;SDS011;1280;49.760;9.664;2023-09-12T13:06:30;11.90;;;7.80;;
2538;SDS011;1280;49.760;9.664;2023-09-12T13:09:02;16.53;;;8.23;;
2538;SDS011;1280;49.760;9.664;2023-09-12T13:11:32;14.83;;;7.93;;
2538;SDS011;1280;49.760;9.664;2023-09-12T13:14:07;16.93;;;8.10;;
2538;SDS011;1280;49.760;9.664;2023-09-12T13:16:38;14.70;;;7.43;;
2538;SDS011;1280;49.760;9.664;2023-09-12T13:19:08;18.27;;;8.80;;
2538;SDS011;1280;49.760;9.664;2023-09-12T13:21:39;16.63;;;8.57;;
2538;SDS011;1280;49.760;9.664;2023-09-12T13:24:08;17.23;;;8.13;;
2538;SDS011;1280;49.760;9.664;2023-09-12T13:26:36;14.03;;;8.77;;
2538;SDS011;1280;49.760;9.664;2023-09-12T13:29:06;20.10;;;8.37;;
2538;SDS011;1280;49.760;9.664;2023-09-12T13:31:34;17.47;;;7.67;;
2538;SDS011;1280;49.760;9.664;2023-09-12T13:34:02;12.03;;;7.60;;
2538;SDS011;1280;49.760;9.664;2023-09-12T13:36:30;16.03;;;7.97;;
2538;SDS011;1280;49.760;9.664;2023-09-12T13:38:59;14.83;;;8.07;;
2538;SDS011;1280;49.760;9.664;2023-09-12T13:41:28;18.57;;;7.97;;
2538;SDS011;1280;49.760;9.664;2023-09-12T13:43:56;18.73;;;7.83;;
2538;SDS011;1280;49.760;9.664;2023-09-12T13:46:24;16.70;;;8.53;;
2538;SDS011;1280;49.760;9.664;2023-09-12T13:48:52;14.90;;;8.00;;
2538;SDS011;1280;49.760;9.664;2023-09-12T13:51:21;17.20;;;7.93;;
2538;SDS011;1280;49.760;9.664;2023-09-12T13:53:49;17.30;;;8.43;;
2538;SDS011;1280;49.760;9.664;2023-09-12T13:56:18;16.27;;;7.67;;
2538;SDS011;1280;49.760;9.664;2023-09-12T13:58:46;18.37;;;7.60;;
2538;SDS011;1280;49.760;9.664;2023-09-12T14:01:16;15.87;;;8.47;;
2538;SDS011;1280;49.760;9.664;2023-09-12T14:03:59;18.20;;;8.43;;
2538;SDS011;1280;49.760;9.664;2023-09-12T14:06:29;19.90;;;8.13;;
2538;SDS011;1280;49.760;9.664;2023-09-12T14:08:58;15.10;;;8.50;;
2538;SDS011;1280;49.760;9.664;2023-09-12T14:11:28;14.43;;;8.50;;
2538;SDS011;1280;49.760;9.664;2023-09-12T14:14:02;20.83;;;7.97;;
2538;SDS011;1280;49.760;9.664;2023-09-12T14:16:34;15.33;;;8.80;;
2538;SDS011;1280;49.760;9.664;2023-09-12T14:19:02;16.70;;;7.80;;
2538;SDS011;1280;49.760;9.664;2023-09-12T14:21:32;19.63;;;8.40;;
2538;SDS011;1280;49.760;9.664;2023-09-12T14:24:04;19.77;;;7.17;;
2538;SDS011;1280;49.760;9.664;2023-09-12T14:26:34;14.37;;;8.13;;
2538;SDS011;1280;49.760;9.664;2023-09-12T14:29:04;17.10;;;8.63;;
2538;SDS011;1280;49.760;9.664;2023-09-12T14:31:32;20.70;;;7.60;;
2538;SDS011;1280;49.760;9.664;2023-09-12T14:34:02;13.20;;;7.63;;
2538;SDS011;1280;49.760;9.664;2023-09-12T14:36:31;16.47;;;8.73;;
2538;SDS011;1280;49.760;9.664;2023-09-12T14:38:59;13.27;;;8.57;;
2538;SDS011;1280;49.760;9.664;2023-09-12T14:41:27;19.97;;;8.90;;
2538;SDS011;1280;49.760;9.664;2023-09-12T14:43:59;16.80;;;7.13;;
2538;SDS011;1280;49.760;9.664;2023-09-12T14:46:27;16.53;;;8.97;;
2538;SDS011;1280;49.760;9.664;2023-09-12T14:48:55;19.27;;;9.00;;
2538;SDS011;1280;49.760;9.664;2023-09-12T14:51:28;16.40;;;8.80;;
2538;SDS011;1280;49.760;9.664;2023-09-12T14:54:00;17.43;;;8.57;;
2538;SDS011;1280;49.760;9.664;2023-09-12T14:56:28;25.73;;;9.07;;
2538;SDS011;1280;49.760;9.664;2023-09-12T14:58:58;17.27;;;8.20;;
2538;SDS011;1280;49.760;9.664;2023-09-12T15:01:28;17.73;;;7.93;;
2538;SDS011;1280;49.760;9.664;2023-09-12T15:03:56;18.00;;;8.57;;
2538;SDS011;1280;49.760;9.664;2023-09-12T15:06:25;13.60;;;7.67;;
2538;SDS011;1280;49.760;9.664;2023-09-12T15:08:54;19.77;;;8.20;;
2538;SDS011;1280;49.760;9.664;2023-09-12T15:11:22;16.40;;;8.17;;
2538;SDS011;1280;49.760;9.664;2023-09-12T15:13:50;20.33;;;9.00;;
2538;SDS011;1280;49.760;9.664;2023-09-12T15:16:20;22.30;;;9.43;;
2538;SDS011;1280;49.760;9.664;2023-09-12T15:18:49;29.87;;;8.77;;
2538;SDS011;1280;49.760;9.664;2023-09-12T15:21:18;15.60;;;8.97;;
2538;SDS011;1280;49.760;9.664;2023-09-12T15:23:46;15.80;;;7.53;;